SULAYMANIYAH INTERNATIONAL AIRPORT
  • SulyAir
  • SulyAir
1 1
Arrival

ArrivalsMore >>

Departure

DeparturesMore >>

TAF

TAF ORSU  040500Z  0406/0506  14006KT 800  SCT045  BKN065  
PROB30 TEMPO  0407/0412 24015KT 7000 TSSHRA FEW035CB
BECMG  0412/0414 31006KT 8000 NSC
TEMPO 0500/0506 VRB03KT 5000 BR=

METARs

METAR ORSU 040500Z 12007KT 9999 SCT045 BKN070 13/13 Q1020=